Pagina principale
METAR-TAF:

METAR-TAF

Aeroporti :

Aeroporto Internazionale del Bahrein

Bahrain, Bahrain

latitudine: 26-16N, longitudine: 050-39E, altezza: 2 m

Osservazione

Il bollettino è stato emesso 36 minuti fa, alle 14:00 UTC
Vento 14 kt da nord/nord-ovest
Temperature 19°C
Umidità 52%
Pressione 1013 hPa
Visibilità 10 km o più
Nubi sparse ad un'altezza di 3000 ft

METAR: OBBI 181400Z 33014KT 9999 SCT030 19/09 Q1013 NOSIG

Ora: 17:36 (14:36 UTC)

Previsione

Il bollettino è stato emesso 3 ore e 36 minuti fa, alle 11:00 UTC
Previsione valida dal 18 alle 12 UTC al 19 alle 18 UTC
Vento 12 kt da nord/nord-ovest
Visibilità 10 km o più
Poco nuvoloso ad un'altezza di 3000 ft
Evoluzione graduale
dal 19 alle 14 UTC al 19 alle 16 UTC
Vento 17 kt da nord/nord-ovest con raffiche fino a 27 kt

TAF: OBBI 181100Z 1812/1918 34012KT 9999 FEW030 BECMG 1914/1916 33017G27KT

Osservazioni e previsioni meteorologiche di più di 4000 aeroporti (messaggi METAR e TAF).

Le stazioni disponibili sono rappresentate dai dischi gialli e rossi sulla carta.

Puntare il mouse per vedere il nome della stazione.

Clicca sopra per visualizzare le osservazioni e previsioni meteorologiche.

Per cambiare la mappa : fare clic sui pulsanti verdi con una croce nera per ingrandire, il pulsante verde con un trattino per diminuire, o sulla freccia verde per le mappe adiacenti.


METAR-TAF: